sensor_id;sensor_type;location;lat;lon;timestamp;temperature;humidity
43673;DHT22;41723;49.326;8.430;2023-03-16T00:01:37;5.10;99.90
43673;DHT22;41723;49.326;8.430;2023-03-16T00:04:03;5.10;99.90
43673;DHT22;41723;49.326;8.430;2023-03-16T00:06:29;5.10;99.90
43673;DHT22;41723;49.326;8.430;2023-03-16T00:08:54;5.00;99.90
43673;DHT22;41723;49.326;8.430;2023-03-16T00:11:26;5.10;99.90
43673;DHT22;41723;49.326;8.430;2023-03-16T00:13:52;5.10;99.90
43673;DHT22;41723;49.326;8.430;2023-03-16T00:16:17;5.10;99.90
43673;DHT22;41723;49.326;8.430;2023-03-16T00:18:43;5.00;99.90
43673;DHT22;41723;49.326;8.430;2023-03-16T00:21:08;5.10;99.90
43673;DHT22;41723;49.326;8.430;2023-03-16T00:23:35;5.00;99.90
43673;DHT22;41723;49.326;8.430;2023-03-16T00:26:05;4.90;99.90
43673;DHT22;41723;49.326;8.430;2023-03-16T00:28:31;4.80;99.90
43673;DHT22;41723;49.326;8.430;2023-03-16T00:31:03;4.90;99.90
43673;DHT22;41723;49.326;8.430;2023-03-16T00:33:29;4.80;99.90
43673;DHT22;41723;49.326;8.430;2023-03-16T00:36:02;4.80;99.90
43673;DHT22;41723;49.326;8.430;2023-03-16T00:38:29;4.70;99.90
43673;DHT22;41723;49.326;8.430;2023-03-16T00:40:55;4.70;99.90
43673;DHT22;41723;49.326;8.430;2023-03-16T00:43:22;4.70;99.90
43673;DHT22;41723;49.326;8.430;2023-03-16T00:45:56;4.70;99.90
43673;DHT22;41723;49.326;8.430;2023-03-16T00:48:22;4.60;99.90
43673;DHT22;41723;49.326;8.430;2023-03-16T00:50:49;4.50;99.90
43673;DHT22;41723;49.326;8.430;2023-03-16T00:53:14;4.50;99.90
43673;DHT22;41723;49.326;8.430;2023-03-16T00:55:40;4.60;99.90
43673;DHT22;41723;49.326;8.430;2023-03-16T00:58:06;4.60;99.90
43673;DHT22;41723;49.326;8.430;2023-03-16T01:00:31;4.50;99.90
43673;DHT22;41723;49.326;8.430;2023-03-16T01:02:58;4.40;99.90
43673;DHT22;41723;49.326;8.430;2023-03-16T01:05:23;4.40;99.90
43673;DHT22;41723;49.326;8.430;2023-03-16T01:07:50;4.50;99.90
43673;DHT22;41723;49.326;8.430;2023-03-16T01:10:16;4.60;99.90
43673;DHT22;41723;49.326;8.430;2023-03-16T01:12:42;4.60;99.90
43673;DHT22;41723;49.326;8.430;2023-03-16T01:15:09;4.70;99.90
43673;DHT22;41723;49.326;8.430;2023-03-16T01:17:35;4.60;99.90
43673;DHT22;41723;49.326;8.430;2023-03-16T01:20:01;4.60;99.90
43673;DHT22;41723;49.326;8.430;2023-03-16T01:22:28;4.60;99.90
43673;DHT22;41723;49.326;8.430;2023-03-16T01:24:53;4.60;99.90
43673;DHT22;41723;49.326;8.430;2023-03-16T01:27:20;4.50;99.90
43673;DHT22;41723;49.326;8.430;2023-03-16T01:29:46;4.50;99.90
43673;DHT22;41723;49.326;8.430;2023-03-16T01:32:11;4.50;99.90
43673;DHT22;41723;49.326;8.430;2023-03-16T01:34:37;4.60;99.90
43673;DHT22;41723;49.326;8.430;2023-03-16T01:37:04;4.70;99.90
43673;DHT22;41723;49.326;8.430;2023-03-16T01:39:53;4.70;99.90
43673;DHT22;41723;49.326;8.430;2023-03-16T01:42:19;4.60;99.90
43673;DHT22;41723;49.326;8.430;2023-03-16T01:44:49;4.60;99.90
43673;DHT22;41723;49.326;8.430;2023-03-16T01:47:15;4.70;99.90
43673;DHT22;41723;49.326;8.430;2023-03-16T01:49:40;4.70;99.90
43673;DHT22;41723;49.326;8.430;2023-03-16T01:52:07;4.70;99.90
43673;DHT22;41723;49.326;8.430;2023-03-16T01:54:35;4.70;99.90
43673;DHT22;41723;49.326;8.430;2023-03-16T01:57:04;4.60;99.90
43673;DHT22;41723;49.326;8.430;2023-03-16T01:59:43;4.50;99.90
43673;DHT22;41723;49.326;8.430;2023-03-16T02:02:12;4.50;99.90
43673;DHT22;41723;49.326;8.430;2023-03-16T02:07:07;4.30;99.90
43673;DHT22;41723;49.326;8.430;2023-03-16T02:09:38;4.40;99.90
43673;DHT22;41723;49.326;8.430;2023-03-16T02:12:07;4.30;99.90
43673;DHT22;41723;49.326;8.430;2023-03-16T02:14:38;4.20;99.90
43673;DHT22;41723;49.326;8.430;2023-03-16T02:17:04;4.20;99.90
43673;DHT22;41723;49.326;8.430;2023-03-16T02:19:42;4.30;99.90
43673;DHT22;41723;49.326;8.430;2023-03-16T02:22:12;4.30;99.90
43673;DHT22;41723;49.326;8.430;2023-03-16T02:24:38;4.20;99.90
43673;DHT22;41723;49.326;8.430;2023-03-16T02:27:08;4.30;99.90
43673;DHT22;41723;49.326;8.430;2023-03-16T02:32:04;4.10;99.90
43673;DHT22;41723;49.326;8.430;2023-03-16T02:34:30;4.10;99.90
43673;DHT22;41723;49.326;8.430;2023-03-16T02:36:56;4.10;99.90
43673;DHT22;41723;49.326;8.430;2023-03-16T02:39:24;4.30;99.90
43673;DHT22;41723;49.326;8.430;2023-03-16T02:41:50;4.10;99.90
43673;DHT22;41723;49.326;8.430;2023-03-16T02:44:20;4.00;99.90
43673;DHT22;41723;49.326;8.430;2023-03-16T02:46:50;4.00;99.90
43673;DHT22;41723;49.326;8.430;2023-03-16T02:51:43;3.90;99.90
43673;DHT22;41723;49.326;8.430;2023-03-16T02:57:45;4.00;99.90
43673;DHT22;41723;49.326;8.430;2023-03-16T03:00:13;4.00;99.90
43673;DHT22;41723;49.326;8.430;2023-03-16T03:02:45;4.00;99.90
43673;DHT22;41723;49.326;8.430;2023-03-16T03:05:11;3.90;99.90
43673;DHT22;41723;49.326;8.430;2023-03-16T03:07:37;3.90;99.90
43673;DHT22;41723;49.326;8.430;2023-03-16T03:10:05;4.00;99.90
43673;DHT22;41723;49.326;8.430;2023-03-16T03:12:32;4.00;99.90
43673;DHT22;41723;49.326;8.430;2023-03-16T03:14:58;3.90;99.90
43673;DHT22;41723;49.326;8.430;2023-03-16T03:17:24;3.90;99.90
43673;DHT22;41723;49.326;8.430;2023-03-16T03:19:55;3.90;99.90
43673;DHT22;41723;49.326;8.430;2023-03-16T03:22:21;3.90;99.90
43673;DHT22;41723;49.326;8.430;2023-03-16T03:24:46;3.90;99.90
43673;DHT22;41723;49.326;8.430;2023-03-16T03:27:12;3.90;99.90
43673;DHT22;41723;49.326;8.430;2023-03-16T03:29:38;3.80;99.90
43673;DHT22;41723;49.326;8.430;2023-03-16T03:32:04;3.80;99.90
43673;DHT22;41723;49.326;8.430;2023-03-16T03:34:30;3.80;99.90
43673;DHT22;41723;49.326;8.430;2023-03-16T03:36:57;3.80;99.90
43673;DHT22;41723;49.326;8.430;2023-03-16T03:39:23;3.80;99.90
43673;DHT22;41723;49.326;8.430;2023-03-16T03:41:50;3.80;99.90
43673;DHT22;41723;49.326;8.430;2023-03-16T03:44:20;3.80;99.90
43673;DHT22;41723;49.326;8.430;2023-03-16T03:46:46;3.70;99.90
43673;DHT22;41723;49.326;8.430;2023-03-16T03:49:12;3.70;99.90
43673;DHT22;41723;49.326;8.430;2023-03-16T03:51:53;3.70;99.90
43673;DHT22;41723;49.326;8.430;2023-03-16T03:54:23;3.60;99.90
43673;DHT22;41723;49.326;8.430;2023-03-16T03:56:56;3.70;99.90
43673;DHT22;41723;49.326;8.430;2023-03-16T03:59:22;3.80;99.90
43673;DHT22;41723;49.326;8.430;2023-03-16T04:02:12;3.90;99.90
43673;DHT22;41723;49.326;8.430;2023-03-16T04:04:43;3.80;99.90
43673;DHT22;41723;49.326;8.430;2023-03-16T04:07:11;3.80;99.90
43673;DHT22;41723;49.326;8.430;2023-03-16T04:09:37;3.80;99.90
43673;DHT22;41723;49.326;8.430;2023-03-16T04:12:03;3.80;99.90
43673;DHT22;41723;49.326;8.430;2023-03-16T04:14:30;3.80;99.90
43673;DHT22;41723;49.326;8.430;2023-03-16T04:16:56;3.80;99.90
43673;DHT22;41723;49.326;8.430;2023-03-16T04:19:22;3.80;99.90
43673;DHT22;41723;49.326;8.430;2023-03-16T04:21:49;3.90;99.90
43673;DHT22;41723;49.326;8.430;2023-03-16T04:24:17;3.80;99.90
43673;DHT22;41723;49.326;8.430;2023-03-16T04:26:43;3.80;99.90
43673;DHT22;41723;49.326;8.430;2023-03-16T04:29:10;3.70;99.90
43673;DHT22;41723;49.326;8.430;2023-03-16T04:31:35;3.70;99.90
43673;DHT22;41723;49.326;8.430;2023-03-16T04:34:02;3.50;99.90
43673;DHT22;41723;49.326;8.430;2023-03-16T04:36:27;3.50;99.90
43673;DHT22;41723;49.326;8.430;2023-03-16T04:38:54;3.50;99.90
43673;DHT22;41723;49.326;8.430;2023-03-16T04:41:19;3.60;99.90
43673;DHT22;41723;49.326;8.430;2023-03-16T04:44:14;3.50;99.90
43673;DHT22;41723;49.326;8.430;2023-03-16T04:46:40;3.40;99.90
43673;DHT22;41723;49.326;8.430;2023-03-16T04:49:08;3.50;99.90
43673;DHT22;41723;49.326;8.430;2023-03-16T04:54:22;3.60;99.90
43673;DHT22;41723;49.326;8.430;2023-03-16T04:56:48;3.60;99.90
43673;DHT22;41723;49.326;8.430;2023-03-16T04:59:29;3.60;99.90
43673;DHT22;41723;49.326;8.430;2023-03-16T05:02:03;3.50;99.90
43673;DHT22;41723;49.326;8.430;2023-03-16T05:04:28;3.50;99.90
43673;DHT22;41723;49.326;8.430;2023-03-16T05:06:54;3.50;99.90
43673;DHT22;41723;49.326;8.430;2023-03-16T05:09:25;3.60;99.90
43673;DHT22;41723;49.326;8.430;2023-03-16T05:11:50;3.70;99.90
43673;DHT22;41723;49.326;8.430;2023-03-16T05:14:16;3.50;99.90
43673;DHT22;41723;49.326;8.430;2023-03-16T05:16:56;3.60;99.90
43673;DHT22;41723;49.326;8.430;2023-03-16T05:19:21;3.60;99.90
43673;DHT22;41723;49.326;8.430;2023-03-16T05:21:47;3.50;99.90
43673;DHT22;41723;49.326;8.430;2023-03-16T05:24:14;3.60;99.90
43673;DHT22;41723;49.326;8.430;2023-03-16T05:26:40;3.60;99.90
43673;DHT22;41723;49.326;8.430;2023-03-16T05:29:09;3.60;99.90
43673;DHT22;41723;49.326;8.430;2023-03-16T05:31:35;3.60;99.90
43673;DHT22;41723;49.326;8.430;2023-03-16T05:34:07;3.60;99.90
43673;DHT22;41723;49.326;8.430;2023-03-16T05:36:33;3.60;99.90
43673;DHT22;41723;49.326;8.430;2023-03-16T05:39:05;3.50;99.90
43673;DHT22;41723;49.326;8.430;2023-03-16T05:41:39;3.50;99.90
43673;DHT22;41723;49.326;8.430;2023-03-16T05:44:28;3.60;99.90
43673;DHT22;41723;49.326;8.430;2023-03-16T05:50:43;3.70;99.90
43673;DHT22;41723;49.326;8.430;2023-03-16T05:53:09;3.70;99.90
43673;DHT22;41723;49.326;8.430;2023-03-16T05:55:37;3.60;99.90
43673;DHT22;41723;49.326;8.430;2023-03-16T05:58:05;3.60;99.90
43673;DHT22;41723;49.326;8.430;2023-03-16T06:00:32;3.60;99.90
43673;DHT22;41723;49.326;8.430;2023-03-16T06:03:07;3.60;99.90
43673;DHT22;41723;49.326;8.430;2023-03-16T06:05:35;3.60;99.90
43673;DHT22;41723;49.326;8.430;2023-03-16T06:08:02;3.60;99.90
43673;DHT22;41723;49.326;8.430;2023-03-16T06:10:28;3.60;99.90
43673;DHT22;41723;49.326;8.430;2023-03-16T06:12:53;3.60;99.90
43673;DHT22;41723;49.326;8.430;2023-03-16T06:15:20;3.50;99.90
43673;DHT22;41723;49.326;8.430;2023-03-16T06:17:50;3.50;99.90
43673;DHT22;41723;49.326;8.430;2023-03-16T06:20:16;3.60;99.90
43673;DHT22;41723;49.326;8.430;2023-03-16T06:22:42;3.60;99.90
43673;DHT22;41723;49.326;8.430;2023-03-16T06:25:09;3.60;99.90
43673;DHT22;41723;49.326;8.430;2023-03-16T06:27:35;3.70;99.90
43673;DHT22;41723;49.326;8.430;2023-03-16T06:30:15;3.70;99.90
43673;DHT22;41723;49.326;8.430;2023-03-16T06:32:40;3.80;99.90
43673;DHT22;41723;49.326;8.430;2023-03-16T06:35:07;3.80;99.90
43673;DHT22;41723;49.326;8.430;2023-03-16T06:37:34;3.80;99.90
43673;DHT22;41723;49.326;8.430;2023-03-16T06:40:05;3.90;99.90
43673;DHT22;41723;49.326;8.430;2023-03-16T06:42:31;3.90;99.90
43673;DHT22;41723;49.326;8.430;2023-03-16T06:44:58;3.90;99.90
43673;DHT22;41723;49.326;8.430;2023-03-16T06:47:24;4.00;99.90
43673;DHT22;41723;49.326;8.430;2023-03-16T06:49:50;4.00;99.90
43673;DHT22;41723;49.326;8.430;2023-03-16T06:52:20;4.00;99.90
43673;DHT22;41723;49.326;8.430;2023-03-16T06:54:45;4.00;99.90
43673;DHT22;41723;49.326;8.430;2023-03-16T06:57:14;4.00;99.90
43673;DHT22;41723;49.326;8.430;2023-03-16T06:59:41;4.00;99.90
43673;DHT22;41723;49.326;8.430;2023-03-16T07:02:08;4.10;99.90
43673;DHT22;41723;49.326;8.430;2023-03-16T07:04:35;4.10;99.90
43673;DHT22;41723;49.326;8.430;2023-03-16T07:07:01;4.20;99.90
43673;DHT22;41723;49.326;8.430;2023-03-16T07:09:27;4.20;99.90
43673;DHT22;41723;49.326;8.430;2023-03-16T07:11:53;4.20;99.90
43673;DHT22;41723;49.326;8.430;2023-03-16T07:14:18;4.20;99.90
43673;DHT22;41723;49.326;8.430;2023-03-16T07:16:46;4.20;99.90
43673;DHT22;41723;49.326;8.430;2023-03-16T07:19:12;4.30;99.90
43673;DHT22;41723;49.326;8.430;2023-03-16T07:21:37;4.20;99.90
43673;DHT22;41723;49.326;8.430;2023-03-16T07:24:08;4.20;99.90
43673;DHT22;41723;49.326;8.430;2023-03-16T07:26:36;4.20;99.90
43673;DHT22;41723;49.326;8.430;2023-03-16T07:29:02;4.30;99.90
43673;DHT22;41723;49.326;8.430;2023-03-16T07:31:31;4.40;99.90
43673;DHT22;41723;49.326;8.430;2023-03-16T07:33:59;4.50;99.90
43673;DHT22;41723;49.326;8.430;2023-03-16T07:36:35;4.60;99.90
43673;DHT22;41723;49.326;8.430;2023-03-16T07:39:01;4.60;99.90
43673;DHT22;41723;49.326;8.430;2023-03-16T07:41:27;4.60;99.90
43673;DHT22;41723;49.326;8.430;2023-03-16T07:43:58;4.70;99.90
43673;DHT22;41723;49.326;8.430;2023-03-16T07:46:24;4.80;99.90
43673;DHT22;41723;49.326;8.430;2023-03-16T07:48:50;4.90;99.90
43673;DHT22;41723;49.326;8.430;2023-03-16T07:51:15;5.00;99.90
43673;DHT22;41723;49.326;8.430;2023-03-16T07:53:47;5.00;99.90
43673;DHT22;41723;49.326;8.430;2023-03-16T07:56:20;5.00;99.90
43673;DHT22;41723;49.326;8.430;2023-03-16T07:58:50;5.10;99.90
43673;DHT22;41723;49.326;8.430;2023-03-16T08:01:16;5.10;99.90
43673;DHT22;41723;49.326;8.430;2023-03-16T08:03:41;5.10;99.90
43673;DHT22;41723;49.326;8.430;2023-03-16T08:06:07;5.20;99.90
43673;DHT22;41723;49.326;8.430;2023-03-16T08:08:33;5.20;99.90
43673;DHT22;41723;49.326;8.430;2023-03-16T08:10:59;5.30;99.90
43673;DHT22;41723;49.326;8.430;2023-03-16T08:13:36;5.30;99.90
43673;DHT22;41723;49.326;8.430;2023-03-16T08:16:01;5.40;99.90
43673;DHT22;41723;49.326;8.430;2023-03-16T08:18:36;5.40;99.90
43673;DHT22;41723;49.326;8.430;2023-03-16T08:21:02;5.50;99.90
43673;DHT22;41723;49.326;8.430;2023-03-16T08:23:27;5.50;99.90
43673;DHT22;41723;49.326;8.430;2023-03-16T08:25:56;5.70;99.90
43673;DHT22;41723;49.326;8.430;2023-03-16T08:28:23;5.70;99.90
43673;DHT22;41723;49.326;8.430;2023-03-16T08:30:51;5.80;99.90
43673;DHT22;41723;49.326;8.430;2023-03-16T08:33:25;5.80;99.90
43673;DHT22;41723;49.326;8.430;2023-03-16T08:35:51;5.90;99.90
43673;DHT22;41723;49.326;8.430;2023-03-16T08:38:17;5.90;99.90
43673;DHT22;41723;49.326;8.430;2023-03-16T08:40:44;5.90;99.90
43673;DHT22;41723;49.326;8.430;2023-03-16T08:43:15;5.90;99.90
43673;DHT22;41723;49.326;8.430;2023-03-16T08:45:43;6.00;99.90
43673;DHT22;41723;49.326;8.430;2023-03-16T08:48:09;6.10;99.90
43673;DHT22;41723;49.326;8.430;2023-03-16T08:50:41;6.10;99.90
43673;DHT22;41723;49.326;8.430;2023-03-16T08:53:07;6.20;99.90
43673;DHT22;41723;49.326;8.430;2023-03-16T08:55:33;6.30;99.90
43673;DHT22;41723;49.326;8.430;2023-03-16T08:58:00;6.40;99.90
43673;DHT22;41723;49.326;8.430;2023-03-16T09:00:25;6.50;99.90
43673;DHT22;41723;49.326;8.430;2023-03-16T09:02:53;6.50;99.90
43673;DHT22;41723;49.326;8.430;2023-03-16T09:05:20;6.70;99.90
43673;DHT22;41723;49.326;8.430;2023-03-16T09:11:21;6.60;99.90
43673;DHT22;41723;49.326;8.430;2023-03-16T09:13:49;6.70;99.90
43673;DHT22;41723;49.326;8.430;2023-03-16T09:16:15;6.80;99.90
43673;DHT22;41723;49.326;8.430;2023-03-16T09:18:41;6.90;99.90
43673;DHT22;41723;49.326;8.430;2023-03-16T09:21:08;7.00;99.90
43673;DHT22;41723;49.326;8.430;2023-03-16T09:23:34;7.10;99.90
43673;DHT22;41723;49.326;8.430;2023-03-16T09:26:03;7.20;99.90
43673;DHT22;41723;49.326;8.430;2023-03-16T09:28:30;7.30;99.90
43673;DHT22;41723;49.326;8.430;2023-03-16T09:30:56;7.20;99.90
43673;DHT22;41723;49.326;8.430;2023-03-16T09:33:22;7.30;99.90
43673;DHT22;41723;49.326;8.430;2023-03-16T09:39:24;7.50;99.90
43673;DHT22;41723;49.326;8.430;2023-03-16T09:41:53;7.50;99.90
43673;DHT22;41723;49.326;8.430;2023-03-16T09:44:26;7.60;99.90
43673;DHT22;41723;49.326;8.430;2023-03-16T09:46:53;7.60;99.90
43673;DHT22;41723;49.326;8.430;2023-03-16T09:49:29;7.60;99.90
43673;DHT22;41723;49.326;8.430;2023-03-16T09:54:39;7.90;99.90
43673;DHT22;41723;49.326;8.430;2023-03-16T09:57:14;7.90;99.90
43673;DHT22;41723;49.326;8.430;2023-03-16T09:59:40;8.00;99.90
43673;DHT22;41723;49.326;8.430;2023-03-16T10:09:37;8.30;99.90
43673;DHT22;41723;49.326;8.430;2023-03-16T10:12:06;8.40;99.90
43673;DHT22;41723;49.326;8.430;2023-03-16T10:14:35;8.40;99.80
43673;DHT22;41723;49.326;8.430;2023-03-16T10:19:44;8.60;99.90
43673;DHT22;41723;49.326;8.430;2023-03-16T10:22:22;8.80;99.90
43673;DHT22;41723;49.326;8.430;2023-03-16T10:25:00;8.80;99.60
43673;DHT22;41723;49.326;8.430;2023-03-16T10:27:33;8.90;99.90
43673;DHT22;41723;49.326;8.430;2023-03-16T10:30:02;9.00;99.60
43673;DHT22;41723;49.326;8.430;2023-03-16T10:32:31;9.20;99.70
43673;DHT22;41723;49.326;8.430;2023-03-16T10:37:47;9.40;99.20
43673;DHT22;41723;49.326;8.430;2023-03-16T10:40:13;9.50;98.90
43673;DHT22;41723;49.326;8.430;2023-03-16T10:42:39;9.60;99.20
43673;DHT22;41723;49.326;8.430;2023-03-16T10:45:10;9.70;98.10
43673;DHT22;41723;49.326;8.430;2023-03-16T10:47:44;9.80;98.30
43673;DHT22;41723;49.326;8.430;2023-03-16T10:50:13;9.90;98.20
43673;DHT22;41723;49.326;8.430;2023-03-16T10:52:44;9.80;99.00
43673;DHT22;41723;49.326;8.430;2023-03-16T10:55:26;9.90;99.10
43673;DHT22;41723;49.326;8.430;2023-03-16T10:57:53;9.90;98.00
43673;DHT22;41723;49.326;8.430;2023-03-16T11:00:27;10.00;98.30
43673;DHT22;41723;49.326;8.430;2023-03-16T11:02:55;10.00;98.40
43673;DHT22;41723;49.326;8.430;2023-03-16T11:05:32;10.10;98.80
43673;DHT22;41723;49.326;8.430;2023-03-16T11:08:05;10.10;98.90
43673;DHT22;41723;49.326;8.430;2023-03-16T11:10:36;10.10;99.20
43673;DHT22;41723;49.326;8.430;2023-03-16T11:13:03;10.10;99.30
43673;DHT22;41723;49.326;8.430;2023-03-16T11:15:34;10.10;98.50
43673;DHT22;41723;49.326;8.430;2023-03-16T11:18:01;10.20;98.60
43673;DHT22;41723;49.326;8.430;2023-03-16T11:20:26;10.30;98.70
43673;DHT22;41723;49.326;8.430;2023-03-16T11:22:53;10.30;99.10
43673;DHT22;41723;49.326;8.430;2023-03-16T11:27:51;10.50;97.70
43673;DHT22;41723;49.326;8.430;2023-03-16T11:30:26;10.50;98.80
43673;DHT22;41723;49.326;8.430;2023-03-16T11:32:53;10.60;98.50
43673;DHT22;41723;49.326;8.430;2023-03-16T11:35:20;10.70;98.10
43673;DHT22;41723;49.326;8.430;2023-03-16T11:40:18;10.80;97.90
43673;DHT22;41723;49.326;8.430;2023-03-16T11:45:18;10.60;97.90
43673;DHT22;41723;49.326;8.430;2023-03-16T11:50:22;10.70;98.10
43673;DHT22;41723;49.326;8.430;2023-03-16T11:55:28;11.00;98.10
43673;DHT22;41723;49.326;8.430;2023-03-16T11:58:02;11.10;97.20
43673;DHT22;41723;49.326;8.430;2023-03-16T12:00:43;11.20;97.60
43673;DHT22;41723;49.326;8.430;2023-03-16T12:03:18;11.40;97.50
43673;DHT22;41723;49.326;8.430;2023-03-16T12:05:57;11.90;96.90
43673;DHT22;41723;49.326;8.430;2023-03-16T12:10:56;12.40;95.80
43673;DHT22;41723;49.326;8.430;2023-03-16T12:13:34;12.50;95.70
43673;DHT22;41723;49.326;8.430;2023-03-16T12:16:04;12.50;95.20
43673;DHT22;41723;49.326;8.430;2023-03-16T12:18:35;12.50;95.10
43673;DHT22;41723;49.326;8.430;2023-03-16T12:21:04;12.70;95.40
43673;DHT22;41723;49.326;8.430;2023-03-16T12:23:32;12.90;95.50
43673;DHT22;41723;49.326;8.430;2023-03-16T12:25:59;13.00;94.10
43673;DHT22;41723;49.326;8.430;2023-03-16T12:28:26;13.10;94.50
43673;DHT22;41723;49.326;8.430;2023-03-16T12:35:55;13.20;94.50
43673;DHT22;41723;49.326;8.430;2023-03-16T12:38:43;13.40;93.40
43673;DHT22;41723;49.326;8.430;2023-03-16T12:41:15;13.60;93.20
43673;DHT22;41723;49.326;8.430;2023-03-16T12:43:53;13.50;92.40
43673;DHT22;41723;49.326;8.430;2023-03-16T12:49:09;14.30;92.20
43673;DHT22;41723;49.326;8.430;2023-03-16T12:51:36;14.30;91.60
43673;DHT22;41723;49.326;8.430;2023-03-16T12:54:03;14.20;92.10
43673;DHT22;41723;49.326;8.430;2023-03-16T12:56:34;14.00;92.00
43673;DHT22;41723;49.326;8.430;2023-03-16T12:59:01;14.20;92.40
43673;DHT22;41723;49.326;8.430;2023-03-16T13:01:36;14.50;92.40
43673;DHT22;41723;49.326;8.430;2023-03-16T13:04:15;14.70;91.10
43673;DHT22;41723;49.326;8.430;2023-03-16T13:06:48;14.50;91.30
43673;DHT22;41723;49.326;8.430;2023-03-16T13:09:16;14.60;91.30
43673;DHT22;41723;49.326;8.430;2023-03-16T13:11:44;14.50;91.00
43673;DHT22;41723;49.326;8.430;2023-03-16T13:14:56;14.80;91.40
43673;DHT22;41723;49.326;8.430;2023-03-16T13:17:06;15.00;90.80
43673;DHT22;41723;49.326;8.430;2023-03-16T13:20:22;15.00;90.20
43673;DHT22;41723;49.326;8.430;2023-03-16T13:27:41;15.00;89.90
43673;DHT22;41723;49.326;8.430;2023-03-16T13:30:16;14.90;90.50
43673;DHT22;41723;49.326;8.430;2023-03-16T13:32:43;14.90;89.20
43673;DHT22;41723;49.326;8.430;2023-03-16T13:35:12;15.10;89.50
43673;DHT22;41723;49.326;8.430;2023-03-16T13:37:39;15.20;90.00
43673;DHT22;41723;49.326;8.430;2023-03-16T13:40:18;15.30;88.40
43673;DHT22;41723;49.326;8.430;2023-03-16T13:42:57;15.00;88.20
43673;DHT22;41723;49.326;8.430;2023-03-16T13:45:27;14.90;88.60
43673;DHT22;41723;49.326;8.430;2023-03-16T13:47:53;14.90;89.10
43673;DHT22;41723;49.326;8.430;2023-03-16T13:50:19;14.90;89.30
43673;DHT22;41723;49.326;8.430;2023-03-16T13:52:59;14.90;89.20
43673;DHT22;41723;49.326;8.430;2023-03-16T13:55:26;15.00;87.30
43673;DHT22;41723;49.326;8.430;2023-03-16T13:57:54;14.80;87.20
43673;DHT22;41723;49.326;8.430;2023-03-16T14:00:22;14.50;88.10
43673;DHT22;41723;49.326;8.430;2023-03-16T14:02:53;14.40;90.00
43673;DHT22;41723;49.326;8.430;2023-03-16T14:05:26;14.50;90.00
43673;DHT22;41723;49.326;8.430;2023-03-16T14:07:53;14.20;89.30
43673;DHT22;41723;49.326;8.430;2023-03-16T14:10:19;14.40;90.00
43673;DHT22;41723;49.326;8.430;2023-03-16T14:12:55;14.40;89.40
43673;DHT22;41723;49.326;8.430;2023-03-16T14:15:26;14.50;89.70
43673;DHT22;41723;49.326;8.430;2023-03-16T14:17:52;14.50;89.90
43673;DHT22;41723;49.326;8.430;2023-03-16T14:20:21;14.40;90.30
43673;DHT22;41723;49.326;8.430;2023-03-16T14:22:49;14.40;90.30
43673;DHT22;41723;49.326;8.430;2023-03-16T14:25:18;14.40;90.50
43673;DHT22;41723;49.326;8.430;2023-03-16T14:27:46;14.30;90.00
43673;DHT22;41723;49.326;8.430;2023-03-16T14:32:37;14.30;89.30
43673;DHT22;41723;49.326;8.430;2023-03-16T14:35:11;14.40;90.40
43673;DHT22;41723;49.326;8.430;2023-03-16T14:37:38;14.30;90.50
43673;DHT22;41723;49.326;8.430;2023-03-16T14:40:05;14.30;90.10
43673;DHT22;41723;49.326;8.430;2023-03-16T14:42:31;14.20;89.60
43673;DHT22;41723;49.326;8.430;2023-03-16T14:44:58;14.20;90.10
43673;DHT22;41723;49.326;8.430;2023-03-16T14:47:26;14.10;90.60
43673;DHT22;41723;49.326;8.430;2023-03-16T14:49:52;13.90;90.10
43673;DHT22;41723;49.326;8.430;2023-03-16T14:54:43;13.70;90.60
43673;DHT22;41723;49.326;8.430;2023-03-16T14:57:14;13.70;90.60
43673;DHT22;41723;49.326;8.430;2023-03-16T14:59:41;13.60;90.70
43673;DHT22;41723;49.326;8.430;2023-03-16T15:02:15;13.50;90.80
43673;DHT22;41723;49.326;8.430;2023-03-16T15:04:41;13.50;90.60
43673;DHT22;41723;49.326;8.430;2023-03-16T15:07:23;13.40;90.80
43673;DHT22;41723;49.326;8.430;2023-03-16T15:09:50;13.40;90.40
43673;DHT22;41723;49.326;8.430;2023-03-16T15:12:16;13.40;90.50
43673;DHT22;41723;49.326;8.430;2023-03-16T15:14:44;13.30;90.60
43673;DHT22;41723;49.326;8.430;2023-03-16T15:17:28;13.30;90.60
43673;DHT22;41723;49.326;8.430;2023-03-16T15:19:54;13.20;90.70
43673;DHT22;41723;49.326;8.430;2023-03-16T15:22:30;13.10;90.50
43673;DHT22;41723;49.326;8.430;2023-03-16T15:24:56;13.00;90.60
43673;DHT22;41723;49.326;8.430;2023-03-16T15:27:24;13.00;90.80
43673;DHT22;41723;49.326;8.430;2023-03-16T15:29:50;13.00;91.40
43673;DHT22;41723;49.326;8.430;2023-03-16T15:32:16;12.90;90.90
43673;DHT22;41723;49.326;8.430;2023-03-16T15:34:42;12.90;91.30
43673;DHT22;41723;49.326;8.430;2023-03-16T15:37:13;13.00;91.40
43673;DHT22;41723;49.326;8.430;2023-03-16T15:39:39;13.00;91.50
43673;DHT22;41723;49.326;8.430;2023-03-16T15:42:11;13.10;91.40
43673;DHT22;41723;49.326;8.430;2023-03-16T15:44:37;13.00;90.90
43673;DHT22;41723;49.326;8.430;2023-03-16T15:47:03;13.00;90.90
43673;DHT22;41723;49.326;8.430;2023-03-16T15:49:28;12.90;91.00
43673;DHT22;41723;49.326;8.430;2023-03-16T15:51:54;12.80;90.90
43673;DHT22;41723;49.326;8.430;2023-03-16T15:54:20;12.80;90.90
43673;DHT22;41723;49.326;8.430;2023-03-16T15:56:45;12.70;91.20
43673;DHT22;41723;49.326;8.430;2023-03-16T15:59:12;12.80;91.40
43673;DHT22;41723;49.326;8.430;2023-03-16T16:01:42;12.70;91.30
43673;DHT22;41723;49.326;8.430;2023-03-16T16:04:15;12.70;91.50
43673;DHT22;41723;49.326;8.430;2023-03-16T16:06:44;12.70;91.80
43673;DHT22;41723;49.326;8.430;2023-03-16T16:09:10;12.60;91.40
43673;DHT22;41723;49.326;8.430;2023-03-16T16:11:35;12.50;91.40
43673;DHT22;41723;49.326;8.430;2023-03-16T16:14:01;12.40;91.50
43673;DHT22;41723;49.326;8.430;2023-03-16T16:16:28;12.40;91.40
43673;DHT22;41723;49.326;8.430;2023-03-16T16:18:54;12.40;91.50
43673;DHT22;41723;49.326;8.430;2023-03-16T16:21:20;12.40;91.50
43673;DHT22;41723;49.326;8.430;2023-03-16T16:23:46;12.40;91.60
43673;DHT22;41723;49.326;8.430;2023-03-16T16:26:34;12.40;92.00
43673;DHT22;41723;49.326;8.430;2023-03-16T16:28:59;12.40;91.80
43673;DHT22;41723;49.326;8.430;2023-03-16T16:31:26;12.40;91.70
43673;DHT22;41723;49.326;8.430;2023-03-16T16:33:52;12.40;92.10
43673;DHT22;41723;49.326;8.430;2023-03-16T16:36:18;12.50;92.00
43673;DHT22;41723;49.326;8.430;2023-03-16T16:38:47;12.40;91.40
43673;DHT22;41723;49.326;8.430;2023-03-16T16:41:20;12.40;91.50
43673;DHT22;41723;49.326;8.430;2023-03-16T16:43:46;12.30;91.40
43673;DHT22;41723;49.326;8.430;2023-03-16T16:46:13;12.30;91.40
43673;DHT22;41723;49.326;8.430;2023-03-16T16:49:03;12.30;91.40
43673;DHT22;41723;49.326;8.430;2023-03-16T16:51:28;12.20;91.50
43673;DHT22;41723;49.326;8.430;2023-03-16T16:53:54;12.30;91.50
43673;DHT22;41723;49.326;8.430;2023-03-16T16:56:25;12.20;91.60
43673;DHT22;41723;49.326;8.430;2023-03-16T16:58:52;12.20;91.50
43673;DHT22;41723;49.326;8.430;2023-03-16T17:01:21;12.20;91.90
43673;DHT22;41723;49.326;8.430;2023-03-16T17:03:49;12.10;91.50